sensor_id;sensor_type;location;lat;lon;timestamp;temperature;humidity
10512;DHT22;5304;48.604;2.096;2023-08-06T03:55:32;14.40;99.90
10512;DHT22;5304;48.604;2.096;2023-08-06T03:58:16;14.40;99.90
10512;DHT22;5304;48.604;2.096;2023-08-06T04:01:02;14.40;99.90
10512;DHT22;5304;48.604;2.096;2023-08-06T04:03:46;14.40;99.90
10512;DHT22;5304;48.604;2.096;2023-08-06T04:06:30;14.40;99.90
10512;DHT22;5304;48.604;2.096;2023-08-06T04:09:14;14.50;99.90
10512;DHT22;5304;48.604;2.096;2023-08-06T04:11:59;14.50;99.90
10512;DHT22;5304;48.604;2.096;2023-08-06T04:14:45;14.50;99.90
10512;DHT22;5304;48.604;2.096;2023-08-06T04:17:30;14.40;99.90
10512;DHT22;5304;48.604;2.096;2023-08-06T04:20:14;14.40;99.90
10512;DHT22;5304;48.604;2.096;2023-08-06T04:22:59;14.40;99.90
10512;DHT22;5304;48.604;2.096;2023-08-06T04:25:44;14.40;99.90
10512;DHT22;5304;48.604;2.096;2023-08-06T04:28:28;14.40;99.90
10512;DHT22;5304;48.604;2.096;2023-08-06T04:31:13;14.40;99.90
10512;DHT22;5304;48.604;2.096;2023-08-06T04:33:57;14.40;99.90
10512;DHT22;5304;48.604;2.096;2023-08-06T04:36:41;14.40;99.90
10512;DHT22;5304;48.604;2.096;2023-08-06T04:39:26;14.40;99.90
10512;DHT22;5304;48.604;2.096;2023-08-06T04:42:11;14.50;99.90
10512;DHT22;5304;48.604;2.096;2023-08-06T04:44:55;14.50;99.90
10512;DHT22;5304;48.604;2.096;2023-08-06T04:47:39;14.50;99.90
10512;DHT22;5304;48.604;2.096;2023-08-06T04:50:23;14.50;99.90
10512;DHT22;5304;48.604;2.096;2023-08-06T04:53:08;14.50;99.90
10512;DHT22;5304;48.604;2.096;2023-08-06T04:55:52;14.50;99.90
10512;DHT22;5304;48.604;2.096;2023-08-06T04:58:36;14.50;99.90
10512;DHT22;5304;48.604;2.096;2023-08-06T05:01:20;14.50;99.90
10512;DHT22;5304;48.604;2.096;2023-08-06T05:04:04;14.40;99.90
10512;DHT22;5304;48.604;2.096;2023-08-06T05:06:48;14.50;99.90
10512;DHT22;5304;48.604;2.096;2023-08-06T05:09:33;14.40;99.90
10512;DHT22;5304;48.604;2.096;2023-08-06T05:12:17;14.50;99.90
10512;DHT22;5304;48.604;2.096;2023-08-06T05:15:01;14.40;99.90
10512;DHT22;5304;48.604;2.096;2023-08-06T05:17:45;14.40;99.90
10512;DHT22;5304;48.604;2.096;2023-08-06T05:20:30;14.50;99.90
10512;DHT22;5304;48.604;2.096;2023-08-06T05:23:14;14.60;99.90
10512;DHT22;5304;48.604;2.096;2023-08-06T05:25:59;14.60;99.90
10512;DHT22;5304;48.604;2.096;2023-08-06T05:28:43;14.60;99.90
10512;DHT22;5304;48.604;2.096;2023-08-06T05:31:27;14.50;99.90
10512;DHT22;5304;48.604;2.096;2023-08-06T05:34:13;14.60;99.90
10512;DHT22;5304;48.604;2.096;2023-08-06T05:36:57;14.60;99.90
10512;DHT22;5304;48.604;2.096;2023-08-06T05:39:41;14.60;99.90
10512;DHT22;5304;48.604;2.096;2023-08-06T05:42:25;14.60;99.90
10512;DHT22;5304;48.604;2.096;2023-08-06T05:45:10;14.50;99.90
10512;DHT22;5304;48.604;2.096;2023-08-06T05:47:55;14.60;99.90
10512;DHT22;5304;48.604;2.096;2023-08-06T05:50:41;14.60;99.90
10512;DHT22;5304;48.604;2.096;2023-08-06T05:53:26;14.60;99.90
10512;DHT22;5304;48.604;2.096;2023-08-06T05:56:10;14.60;99.90
10512;DHT22;5304;48.604;2.096;2023-08-06T05:58:54;14.70;99.90
10512;DHT22;5304;48.604;2.096;2023-08-06T06:01:39;14.70;99.90
10512;DHT22;5304;48.604;2.096;2023-08-06T06:04:24;14.80;99.90
10512;DHT22;5304;48.604;2.096;2023-08-06T06:07:08;14.80;99.90
10512;DHT22;5304;48.604;2.096;2023-08-06T06:09:53;14.80;99.90
10512;DHT22;5304;48.604;2.096;2023-08-06T06:12:38;14.80;99.90
10512;DHT22;5304;48.604;2.096;2023-08-06T06:15:23;14.90;99.90
10512;DHT22;5304;48.604;2.096;2023-08-06T06:18:07;14.90;99.90
10512;DHT22;5304;48.604;2.096;2023-08-06T06:20:51;14.90;99.90
10512;DHT22;5304;48.604;2.096;2023-08-06T06:23:36;15.00;99.90
10512;DHT22;5304;48.604;2.096;2023-08-06T06:26:20;15.00;99.90
10512;DHT22;5304;48.604;2.096;2023-08-06T06:29:04;15.00;99.90
10512;DHT22;5304;48.604;2.096;2023-08-06T06:31:48;14.90;99.90
10512;DHT22;5304;48.604;2.096;2023-08-06T06:34:33;14.90;99.90
10512;DHT22;5304;48.604;2.096;2023-08-06T06:37:17;14.80;99.90
10512;DHT22;5304;48.604;2.096;2023-08-06T06:40:01;14.90;99.90
10512;DHT22;5304;48.604;2.096;2023-08-06T06:42:45;15.00;99.90
10512;DHT22;5304;48.604;2.096;2023-08-06T06:45:29;15.00;99.90
10512;DHT22;5304;48.604;2.096;2023-08-06T06:48:14;15.10;99.90
10512;DHT22;5304;48.604;2.096;2023-08-06T06:50:59;15.10;99.90
10512;DHT22;5304;48.604;2.096;2023-08-06T06:53:43;15.30;99.90
10512;DHT22;5304;48.604;2.096;2023-08-06T06:56:27;15.50;99.90
10512;DHT22;5304;48.604;2.096;2023-08-06T06:59:12;15.70;99.90
10512;DHT22;5304;48.604;2.096;2023-08-06T07:01:56;16.00;99.90
10512;DHT22;5304;48.604;2.096;2023-08-06T07:04:40;16.20;99.90
10512;DHT22;5304;48.604;2.096;2023-08-06T07:07:24;16.30;99.90
10512;DHT22;5304;48.604;2.096;2023-08-06T07:10:10;16.40;99.90
10512;DHT22;5304;48.604;2.096;2023-08-06T07:12:55;16.70;99.90
10512;DHT22;5304;48.604;2.096;2023-08-06T07:15:39;16.90;99.90
10512;DHT22;5304;48.604;2.096;2023-08-06T07:18:24;17.00;99.90
10512;DHT22;5304;48.604;2.096;2023-08-06T07:21:08;17.30;99.90
10512;DHT22;5304;48.604;2.096;2023-08-06T07:23:52;17.60;99.90
10512;DHT22;5304;48.604;2.096;2023-08-06T07:26:37;17.90;99.90
10512;DHT22;5304;48.604;2.096;2023-08-06T07:29:21;17.90;99.90
10512;DHT22;5304;48.604;2.096;2023-08-06T07:32:07;17.50;99.90
10512;DHT22;5304;48.604;2.096;2023-08-06T07:34:51;17.30;99.90
10512;DHT22;5304;48.604;2.096;2023-08-06T07:37:40;17.10;99.90
10512;DHT22;5304;48.604;2.096;2023-08-06T07:40:25;17.00;99.90
10512;DHT22;5304;48.604;2.096;2023-08-06T07:43:09;17.00;99.90
10512;DHT22;5304;48.604;2.096;2023-08-06T07:45:54;16.80;99.90
10512;DHT22;5304;48.604;2.096;2023-08-06T07:48:41;16.70;99.90
10512;DHT22;5304;48.604;2.096;2023-08-06T07:51:25;16.70;99.90
10512;DHT22;5304;48.604;2.096;2023-08-06T07:54:10;17.60;99.90
10512;DHT22;5304;48.604;2.096;2023-08-06T07:56:53;19.70;99.90
10512;DHT22;5304;48.604;2.096;2023-08-06T07:59:38;21.50;99.90
10512;DHT22;5304;48.604;2.096;2023-08-06T08:02:23;22.60;99.90
10512;DHT22;5304;48.604;2.096;2023-08-06T08:05:07;22.70;99.90
10512;DHT22;5304;48.604;2.096;2023-08-06T08:07:52;23.50;99.90
10512;DHT22;5304;48.604;2.096;2023-08-06T08:10:36;25.00;99.90
10512;DHT22;5304;48.604;2.096;2023-08-06T08:13:22;25.40;99.90
10512;DHT22;5304;48.604;2.096;2023-08-06T08:16:07;25.70;99.90
10512;DHT22;5304;48.604;2.096;2023-08-06T08:18:51;25.20;99.90
10512;DHT22;5304;48.604;2.096;2023-08-06T08:21:35;25.60;99.90
10512;DHT22;5304;48.604;2.096;2023-08-06T08:24:20;25.50;99.90
10512;DHT22;5304;48.604;2.096;2023-08-06T08:27:08;25.20;99.90
10512;DHT22;5304;48.604;2.096;2023-08-06T08:29:52;25.20;99.90
10512;DHT22;5304;48.604;2.096;2023-08-06T08:32:36;24.90;99.90
10512;DHT22;5304;48.604;2.096;2023-08-06T08:35:21;24.80;99.90
10512;DHT22;5304;48.604;2.096;2023-08-06T08:38:05;24.60;99.90
10512;DHT22;5304;48.604;2.096;2023-08-06T08:40:52;24.80;99.90
10512;DHT22;5304;48.604;2.096;2023-08-06T08:43:38;23.90;99.90
10512;DHT22;5304;48.604;2.096;2023-08-06T08:46:26;23.30;99.90
10512;DHT22;5304;48.604;2.096;2023-08-06T08:49:11;22.60;99.90
10512;DHT22;5304;48.604;2.096;2023-08-06T08:51:55;22.00;99.90
10512;DHT22;5304;48.604;2.096;2023-08-06T08:54:41;21.00;99.90
10512;DHT22;5304;48.604;2.096;2023-08-06T08:57:27;20.20;99.90
10512;DHT22;5304;48.604;2.096;2023-08-06T09:00:12;19.70;99.90
10512;DHT22;5304;48.604;2.096;2023-08-06T09:02:59;19.80;99.90
10512;DHT22;5304;48.604;2.096;2023-08-06T09:05:44;19.60;99.90
10512;DHT22;5304;48.604;2.096;2023-08-06T09:08:35;19.00;99.90
10512;DHT22;5304;48.604;2.096;2023-08-06T09:11:20;18.70;99.90
10512;DHT22;5304;48.604;2.096;2023-08-06T09:14:06;18.60;99.90
10512;DHT22;5304;48.604;2.096;2023-08-06T09:16:52;18.60;99.90
10512;DHT22;5304;48.604;2.096;2023-08-06T09:19:36;18.90;99.90
10512;DHT22;5304;48.604;2.096;2023-08-06T09:22:21;19.40;99.90
10512;DHT22;5304;48.604;2.096;2023-08-06T09:25:07;19.70;99.90
10512;DHT22;5304;48.604;2.096;2023-08-06T09:27:53;20.10;99.90
10512;DHT22;5304;48.604;2.096;2023-08-06T09:30:38;20.10;99.90
10512;DHT22;5304;48.604;2.096;2023-08-06T09:33:23;20.40;99.90
10512;DHT22;5304;48.604;2.096;2023-08-06T09:36:09;20.40;99.90
10512;DHT22;5304;48.604;2.096;2023-08-06T09:38:54;20.50;99.90
10512;DHT22;5304;48.604;2.096;2023-08-06T09:41:38;20.40;99.90
10512;DHT22;5304;48.604;2.096;2023-08-06T09:44:24;20.10;99.90
10512;DHT22;5304;48.604;2.096;2023-08-06T09:47:09;19.90;99.90
10512;DHT22;5304;48.604;2.096;2023-08-06T09:49:53;19.60;99.90
10512;DHT22;5304;48.604;2.096;2023-08-06T09:52:42;19.80;99.90
10512;DHT22;5304;48.604;2.096;2023-08-06T09:55:27;20.10;99.90
10512;DHT22;5304;48.604;2.096;2023-08-06T09:58:13;20.60;99.90
10512;DHT22;5304;48.604;2.096;2023-08-06T10:00:59;20.40;99.90
10512;DHT22;5304;48.604;2.096;2023-08-06T10:03:44;20.50;99.90
10512;DHT22;5304;48.604;2.096;2023-08-06T10:06:29;20.50;99.90
10512;DHT22;5304;48.604;2.096;2023-08-06T10:09:14;20.20;99.90
10512;DHT22;5304;48.604;2.096;2023-08-06T10:12:00;20.00;99.90
10512;DHT22;5304;48.604;2.096;2023-08-06T10:14:46;19.90;99.90
10512;DHT22;5304;48.604;2.096;2023-08-06T10:17:31;19.80;99.90
10512;DHT22;5304;48.604;2.096;2023-08-06T10:20:17;19.60;99.90
10512;DHT22;5304;48.604;2.096;2023-08-06T10:23:04;19.60;99.90
10512;DHT22;5304;48.604;2.096;2023-08-06T10:25:53;19.90;99.90
10512;DHT22;5304;48.604;2.096;2023-08-06T10:28:40;20.50;99.90
10512;DHT22;5304;48.604;2.096;2023-08-06T10:31:55;20.80;99.90
10512;DHT22;5304;48.604;2.096;2023-08-06T10:34:55;21.10;99.90
10512;DHT22;5304;48.604;2.096;2023-08-06T10:37:45;20.70;99.90
10512;DHT22;5304;48.604;2.096;2023-08-06T10:40:29;20.10;99.90
10512;DHT22;5304;48.604;2.096;2023-08-06T10:43:29;19.60;99.90
10512;DHT22;5304;48.604;2.096;2023-08-06T10:46:29;19.40;99.90
10512;DHT22;5304;48.604;2.096;2023-08-06T10:49:15;19.20;99.90
10512;DHT22;5304;48.604;2.096;2023-08-06T10:52:01;19.20;99.90
10512;DHT22;5304;48.604;2.096;2023-08-06T10:54:45;19.40;99.90
10512;DHT22;5304;48.604;2.096;2023-08-06T10:57:30;19.70;99.90
10512;DHT22;5304;48.604;2.096;2023-08-06T11:00:14;20.30;99.90
10512;DHT22;5304;48.604;2.096;2023-08-06T11:02:58;20.40;99.90
10512;DHT22;5304;48.604;2.096;2023-08-06T11:05:48;20.40;99.90
10512;DHT22;5304;48.604;2.096;2023-08-06T11:08:38;20.10;99.90
10512;DHT22;5304;48.604;2.096;2023-08-06T11:11:23;20.00;99.90
10512;DHT22;5304;48.604;2.096;2023-08-06T11:14:15;19.70;99.90
10512;DHT22;5304;48.604;2.096;2023-08-06T11:16:59;19.90;99.90
10512;DHT22;5304;48.604;2.096;2023-08-06T11:19:44;20.30;99.90
10512;DHT22;5304;48.604;2.096;2023-08-06T11:22:28;20.60;99.90
10512;DHT22;5304;48.604;2.096;2023-08-06T11:25:12;20.90;99.90
10512;DHT22;5304;48.604;2.096;2023-08-06T11:27:57;20.70;99.90
10512;DHT22;5304;48.604;2.096;2023-08-06T11:30:41;20.40;99.90
10512;DHT22;5304;48.604;2.096;2023-08-06T11:33:26;20.10;99.90
10512;DHT22;5304;48.604;2.096;2023-08-06T11:36:10;19.80;99.90
10512;DHT22;5304;48.604;2.096;2023-08-06T11:38:55;19.50;99.90
10512;DHT22;5304;48.604;2.096;2023-08-06T11:41:40;19.40;99.90
10512;DHT22;5304;48.604;2.096;2023-08-06T11:44:26;19.30;99.90
10512;DHT22;5304;48.604;2.096;2023-08-06T11:47:15;19.40;99.90
10512;DHT22;5304;48.604;2.096;2023-08-06T11:50:00;19.60;99.90
10512;DHT22;5304;48.604;2.096;2023-08-06T11:52:44;19.70;99.90
10512;DHT22;5304;48.604;2.096;2023-08-06T11:55:29;19.70;99.90
10512;DHT22;5304;48.604;2.096;2023-08-06T11:58:17;19.90;99.90
10512;DHT22;5304;48.604;2.096;2023-08-06T12:01:01;20.10;99.90
10512;DHT22;5304;48.604;2.096;2023-08-06T12:03:46;20.30;99.90
10512;DHT22;5304;48.604;2.096;2023-08-06T12:06:30;20.50;99.90
10512;DHT22;5304;48.604;2.096;2023-08-06T12:09:14;20.70;99.90
10512;DHT22;5304;48.604;2.096;2023-08-06T12:11:58;20.50;99.90
10512;DHT22;5304;48.604;2.096;2023-08-06T12:14:43;20.30;99.90
10512;DHT22;5304;48.604;2.096;2023-08-06T12:17:27;20.20;99.90
10512;DHT22;5304;48.604;2.096;2023-08-06T12:20:12;20.10;99.90
10512;DHT22;5304;48.604;2.096;2023-08-06T12:22:56;20.10;99.90
10512;DHT22;5304;48.604;2.096;2023-08-06T12:25:41;20.20;99.90
10512;DHT22;5304;48.604;2.096;2023-08-06T12:28:25;20.30;99.90
10512;DHT22;5304;48.604;2.096;2023-08-06T12:31:10;20.30;99.90
10512;DHT22;5304;48.604;2.096;2023-08-06T12:33:54;20.40;99.90
10512;DHT22;5304;48.604;2.096;2023-08-06T12:36:38;20.40;99.90
10512;DHT22;5304;48.604;2.096;2023-08-06T12:39:23;20.20;99.90
10512;DHT22;5304;48.604;2.096;2023-08-06T12:42:07;20.10;99.90
10512;DHT22;5304;48.604;2.096;2023-08-06T12:44:52;20.00;99.90
10512;DHT22;5304;48.604;2.096;2023-08-06T12:47:37;20.00;99.90
10512;DHT22;5304;48.604;2.096;2023-08-06T12:50:21;20.20;99.90
10512;DHT22;5304;48.604;2.096;2023-08-06T12:53:05;20.50;99.90
10512;DHT22;5304;48.604;2.096;2023-08-06T12:55:49;21.00;99.90
10512;DHT22;5304;48.604;2.096;2023-08-06T12:58:34;21.20;99.90
10512;DHT22;5304;48.604;2.096;2023-08-06T13:01:18;21.40;99.90
10512;DHT22;5304;48.604;2.096;2023-08-06T13:04:02;21.40;99.90
10512;DHT22;5304;48.604;2.096;2023-08-06T13:06:47;21.50;99.90
10512;DHT22;5304;48.604;2.096;2023-08-06T13:09:33;21.50;99.90
10512;DHT22;5304;48.604;2.096;2023-08-06T13:12:17;21.30;99.90
10512;DHT22;5304;48.604;2.096;2023-08-06T13:15:04;21.10;99.90
10512;DHT22;5304;48.604;2.096;2023-08-06T13:17:49;20.80;99.90
10512;DHT22;5304;48.604;2.096;2023-08-06T13:20:33;20.70;99.90
10512;DHT22;5304;48.604;2.096;2023-08-06T13:23:17;20.70;99.90
10512;DHT22;5304;48.604;2.096;2023-08-06T13:26:01;20.40;99.90
10512;DHT22;5304;48.604;2.096;2023-08-06T13:28:46;20.20;99.90
10512;DHT22;5304;48.604;2.096;2023-08-06T13:31:30;20.00;99.90
10512;DHT22;5304;48.604;2.096;2023-08-06T13:34:14;19.80;99.90
10512;DHT22;5304;48.604;2.096;2023-08-06T13:37:00;19.80;99.90
10512;DHT22;5304;48.604;2.096;2023-08-06T13:39:44;20.00;99.90
10512;DHT22;5304;48.604;2.096;2023-08-06T13:42:29;20.40;99.90
10512;DHT22;5304;48.604;2.096;2023-08-06T13:45:13;20.70;99.90
10512;DHT22;5304;48.604;2.096;2023-08-06T13:47:57;20.70;99.90
10512;DHT22;5304;48.604;2.096;2023-08-06T13:50:42;20.90;99.90
10512;DHT22;5304;48.604;2.096;2023-08-06T13:53:27;21.20;99.90
10512;DHT22;5304;48.604;2.096;2023-08-06T13:56:14;21.40;99.90
10512;DHT22;5304;48.604;2.096;2023-08-06T13:59:01;21.30;99.90
10512;DHT22;5304;48.604;2.096;2023-08-06T14:01:45;21.20;99.90
10512;DHT22;5304;48.604;2.096;2023-08-06T14:04:30;20.90;99.90
10512;DHT22;5304;48.604;2.096;2023-08-06T14:07:14;20.70;99.90
10512;DHT22;5304;48.604;2.096;2023-08-06T14:09:58;21.10;99.90
10512;DHT22;5304;48.604;2.096;2023-08-06T14:12:42;21.40;99.90
10512;DHT22;5304;48.604;2.096;2023-08-06T14:15:27;21.80;99.90
10512;DHT22;5304;48.604;2.096;2023-08-06T14:18:11;22.20;99.90
10512;DHT22;5304;48.604;2.096;2023-08-06T14:20:55;22.60;99.90
10512;DHT22;5304;48.604;2.096;2023-08-06T14:23:40;22.60;99.90
10512;DHT22;5304;48.604;2.096;2023-08-06T14:26:25;22.60;99.90
10512;DHT22;5304;48.604;2.096;2023-08-06T14:29:10;22.60;99.90
10512;DHT22;5304;48.604;2.096;2023-08-06T14:31:54;22.20;99.90
10512;DHT22;5304;48.604;2.096;2023-08-06T14:34:38;22.20;99.90
10512;DHT22;5304;48.604;2.096;2023-08-06T14:37:22;22.30;99.90
10512;DHT22;5304;48.604;2.096;2023-08-06T14:40:07;22.40;99.90
10512;DHT22;5304;48.604;2.096;2023-08-06T14:42:52;22.60;99.90
10512;DHT22;5304;48.604;2.096;2023-08-06T14:45:39;22.50;99.90
10512;DHT22;5304;48.604;2.096;2023-08-06T14:48:24;22.30;99.90
10512;DHT22;5304;48.604;2.096;2023-08-06T14:51:09;22.00;99.90
10512;DHT22;5304;48.604;2.096;2023-08-06T14:53:53;21.80;99.90
10512;DHT22;5304;48.604;2.096;2023-08-06T14:56:38;21.70;99.90
10512;DHT22;5304;48.604;2.096;2023-08-06T14:59:22;21.40;99.90
10512;DHT22;5304;48.604;2.096;2023-08-06T15:02:07;21.20;99.90
10512;DHT22;5304;48.604;2.096;2023-08-06T15:04:51;21.00;99.90
10512;DHT22;5304;48.604;2.096;2023-08-06T15:07:36;21.00;99.90
10512;DHT22;5304;48.604;2.096;2023-08-06T15:10:21;21.20;99.90
10512;DHT22;5304;48.604;2.096;2023-08-06T15:13:05;21.50;99.90
10512;DHT22;5304;48.604;2.096;2023-08-06T15:15:50;21.50;99.90
10512;DHT22;5304;48.604;2.096;2023-08-06T15:18:34;21.40;99.90
10512;DHT22;5304;48.604;2.096;2023-08-06T15:21:19;21.10;99.90
10512;DHT22;5304;48.604;2.096;2023-08-06T15:24:04;20.70;99.90
10512;DHT22;5304;48.604;2.096;2023-08-06T15:26:48;20.60;99.90
10512;DHT22;5304;48.604;2.096;2023-08-06T15:29:33;20.40;99.90
10512;DHT22;5304;48.604;2.096;2023-08-06T15:32:17;20.60;99.90
10512;DHT22;5304;48.604;2.096;2023-08-06T15:35:01;21.00;99.90
10512;DHT22;5304;48.604;2.096;2023-08-06T15:37:47;21.10;99.90
10512;DHT22;5304;48.604;2.096;2023-08-06T15:40:32;21.20;99.90
10512;DHT22;5304;48.604;2.096;2023-08-06T15:43:16;21.10;99.90
10512;DHT22;5304;48.604;2.096;2023-08-06T15:46:00;21.10;99.90
10512;DHT22;5304;48.604;2.096;2023-08-06T15:48:44;20.90;99.90
10512;DHT22;5304;48.604;2.096;2023-08-06T15:51:29;20.70;99.90
10512;DHT22;5304;48.604;2.096;2023-08-06T15:54:13;20.70;99.90
10512;DHT22;5304;48.604;2.096;2023-08-06T15:56:58;20.80;99.90
10512;DHT22;5304;48.604;2.096;2023-08-06T15:59:42;21.10;99.90
10512;DHT22;5304;48.604;2.096;2023-08-06T16:02:27;21.20;99.90
10512;DHT22;5304;48.604;2.096;2023-08-06T16:05:11;21.20;99.90
10512;DHT22;5304;48.604;2.096;2023-08-06T16:07:56;21.20;99.90
10512;DHT22;5304;48.604;2.096;2023-08-06T16:10:40;21.20;99.90
10512;DHT22;5304;48.604;2.096;2023-08-06T16:13:28;21.20;99.90
10512;DHT22;5304;48.604;2.096;2023-08-06T16:16:12;21.10;99.90
10512;DHT22;5304;48.604;2.096;2023-08-06T16:18:57;21.00;99.90
10512;DHT22;5304;48.604;2.096;2023-08-06T16:21:41;21.00;99.90
10512;DHT22;5304;48.604;2.096;2023-08-06T16:24:26;20.90;99.90
10512;DHT22;5304;48.604;2.096;2023-08-06T16:27:10;21.00;99.90
10512;DHT22;5304;48.604;2.096;2023-08-06T16:29:54;20.90;99.90
10512;DHT22;5304;48.604;2.096;2023-08-06T16:32:38;20.80;99.90
10512;DHT22;5304;48.604;2.096;2023-08-06T16:35:23;20.80;99.90
10512;DHT22;5304;48.604;2.096;2023-08-06T16:38:07;20.80;99.90
10512;DHT22;5304;48.604;2.096;2023-08-06T16:40:53;20.80;99.90
10512;DHT22;5304;48.604;2.096;2023-08-06T16:43:37;20.70;99.90
10512;DHT22;5304;48.604;2.096;2023-08-06T16:46:22;20.80;99.90
10512;DHT22;5304;48.604;2.096;2023-08-06T16:49:06;20.70;99.90
10512;DHT22;5304;48.604;2.096;2023-08-06T16:51:50;20.70;99.90
10512;DHT22;5304;48.604;2.096;2023-08-06T16:54:35;20.60;99.90
10512;DHT22;5304;48.604;2.096;2023-08-06T16:57:19;20.60;99.90
10512;DHT22;5304;48.604;2.096;2023-08-06T17:00:04;20.40;99.90
10512;DHT22;5304;48.604;2.096;2023-08-06T17:02:49;20.40;99.90
10512;DHT22;5304;48.604;2.096;2023-08-06T17:05:33;20.40;99.90
10512;DHT22;5304;48.604;2.096;2023-08-06T17:08:18;20.30;99.90
10512;DHT22;5304;48.604;2.096;2023-08-06T17:11:02;20.30;99.90
10512;DHT22;5304;48.604;2.096;2023-08-06T17:13:47;20.40;99.90
10512;DHT22;5304;48.604;2.096;2023-08-06T17:16:31;20.20;99.90
10512;DHT22;5304;48.604;2.096;2023-08-06T17:19:15;20.10;99.90
10512;DHT22;5304;48.604;2.096;2023-08-06T17:21:59;19.90;99.90
10512;DHT22;5304;48.604;2.096;2023-08-06T17:24:44;19.90;99.90
10512;DHT22;5304;48.604;2.096;2023-08-06T17:27:29;19.90;99.90
10512;DHT22;5304;48.604;2.096;2023-08-06T17:30:13;19.80;99.90
10512;DHT22;5304;48.604;2.096;2023-08-06T17:32:57;19.70;99.90
10512;DHT22;5304;48.604;2.096;2023-08-06T17:35:43;19.70;99.90
10512;DHT22;5304;48.604;2.096;2023-08-06T17:38:27;19.60;99.90
10512;DHT22;5304;48.604;2.096;2023-08-06T17:41:11;19.60;99.90
10512;DHT22;5304;48.604;2.096;2023-08-06T17:43:55;19.50;99.90
10512;DHT22;5304;48.604;2.096;2023-08-06T17:46:40;19.40;99.90
10512;DHT22;5304;48.604;2.096;2023-08-06T17:49:25;19.40;99.90
10512;DHT22;5304;48.604;2.096;2023-08-06T17:52:09;19.30;99.90
10512;DHT22;5304;48.604;2.096;2023-08-06T17:54:53;19.20;99.90
10512;DHT22;5304;48.604;2.096;2023-08-06T17:57:38;19.20;99.90
10512;DHT22;5304;48.604;2.096;2023-08-06T18:00:22;19.20;99.90
10512;DHT22;5304;48.604;2.096;2023-08-06T18:03:09;19.10;99.90
10512;DHT22;5304;48.604;2.096;2023-08-06T18:05:57;19.10;99.90
10512;DHT22;5304;48.604;2.096;2023-08-06T18:08:41;19.10;99.90
10512;DHT22;5304;48.604;2.096;2023-08-06T18:11:26;19.10;99.90
10512;DHT22;5304;48.604;2.096;2023-08-06T18:14:10;19.00;99.90
10512;DHT22;5304;48.604;2.096;2023-08-06T18:16:54;18.90;99.90
10512;DHT22;5304;48.604;2.096;2023-08-06T18:19:39;18.90;99.90
10512;DHT22;5304;48.604;2.096;2023-08-06T18:22:23;18.80;99.90
10512;DHT22;5304;48.604;2.096;2023-08-06T18:25:08;18.80;99.90
10512;DHT22;5304;48.604;2.096;2023-08-06T18:27:52;18.70;99.90
10512;DHT22;5304;48.604;2.096;2023-08-06T18:30:36;18.80;99.90
10512;DHT22;5304;48.604;2.096;2023-08-06T18:33:21;18.60;99.90
10512;DHT22;5304;48.604;2.096;2023-08-06T18:36:05;18.50;99.90
10512;DHT22;5304;48.604;2.096;2023-08-06T18:38:50;18.50;99.90
10512;DHT22;5304;48.604;2.096;2023-08-06T18:41:34;18.40;99.90
10512;DHT22;5304;48.604;2.096;2023-08-06T18:44:18;18.30;99.90
10512;DHT22;5304;48.604;2.096;2023-08-06T18:47:03;18.30;99.90
10512;DHT22;5304;48.604;2.096;2023-08-06T18:49:47;18.20;99.90
10512;DHT22;5304;48.604;2.096;2023-08-06T18:52:31;18.20;99.90
10512;DHT22;5304;48.604;2.096;2023-08-06T18:55:15;18.20;99.90
10512;DHT22;5304;48.604;2.096;2023-08-06T18:58:00;18.10;99.90
10512;DHT22;5304;48.604;2.096;2023-08-06T19:00:47;18.00;99.90
10512;DHT22;5304;48.604;2.096;2023-08-06T19:03:31;17.90;99.90
10512;DHT22;5304;48.604;2.096;2023-08-06T19:06:16;17.80;99.90
10512;DHT22;5304;48.604;2.096;2023-08-06T19:09:00;17.70;99.90
10512;DHT22;5304;48.604;2.096;2023-08-06T19:11:45;17.60;99.90
10512;DHT22;5304;48.604;2.096;2023-08-06T19:14:29;17.50;99.90
10512;DHT22;5304;48.604;2.096;2023-08-06T19:17:14;17.30;99.90
10512;DHT22;5304;48.604;2.096;2023-08-06T19:19:58;17.30;99.90
10512;DHT22;5304;48.604;2.096;2023-08-06T19:22:42;17.10;99.90
10512;DHT22;5304;48.604;2.096;2023-08-06T19:25:26;17.00;99.90
10512;DHT22;5304;48.604;2.096;2023-08-06T19:28:11;16.80;99.90
10512;DHT22;5304;48.604;2.096;2023-08-06T19:30:58;16.70;99.90
10512;DHT22;5304;48.604;2.096;2023-08-06T19:33:42;16.60;99.90
10512;DHT22;5304;48.604;2.096;2023-08-06T19:36:26;16.40;99.90
10512;DHT22;5304;48.604;2.096;2023-08-06T19:39:10;16.40;99.90
10512;DHT22;5304;48.604;2.096;2023-08-06T19:41:54;16.40;99.90
10512;DHT22;5304;48.604;2.096;2023-08-06T19:44:39;16.30;99.90
10512;DHT22;5304;48.604;2.096;2023-08-06T19:47:23;16.20;99.90
10512;DHT22;5304;48.604;2.096;2023-08-06T19:50:07;16.10;99.90
10512;DHT22;5304;48.604;2.096;2023-08-06T19:52:52;16.00;99.90
10512;DHT22;5304;48.604;2.096;2023-08-06T19:55:39;16.00;99.90
10512;DHT22;5304;48.604;2.096;2023-08-06T19:58:28;15.80;99.90
10512;DHT22;5304;48.604;2.096;2023-08-06T20:01:13;15.70;99.90
10512;DHT22;5304;48.604;2.096;2023-08-06T20:03:58;15.60;99.90
10512;DHT22;5304;48.604;2.096;2023-08-06T20:06:42;15.60;99.90
10512;DHT22;5304;48.604;2.096;2023-08-06T20:09:26;15.50;99.90
10512;DHT22;5304;48.604;2.096;2023-08-06T20:12:11;15.40;99.90
10512;DHT22;5304;48.604;2.096;2023-08-06T20:14:55;15.30;99.90
10512;DHT22;5304;48.604;2.096;2023-08-06T20:17:39;15.20;99.90
10512;DHT22;5304;48.604;2.096;2023-08-06T20:20:23;15.20;99.90
10512;DHT22;5304;48.604;2.096;2023-08-06T20:23:07;15.10;99.90
10512;DHT22;5304;48.604;2.096;2023-08-06T20:25:51;15.00;99.90
10512;DHT22;5304;48.604;2.096;2023-08-06T20:28:36;15.00;99.90
10512;DHT22;5304;48.604;2.096;2023-08-06T20:31:20;15.00;99.90
10512;DHT22;5304;48.604;2.096;2023-08-06T20:34:05;15.00;99.90
10512;DHT22;5304;48.604;2.096;2023-08-06T20:36:49;14.90;99.90
10512;DHT22;5304;48.604;2.096;2023-08-06T20:39:33;14.90;99.90
10512;DHT22;5304;48.604;2.096;2023-08-06T20:42:18;14.80;99.90
10512;DHT22;5304;48.604;2.096;2023-08-06T20:45:02;14.80;99.90
10512;DHT22;5304;48.604;2.096;2023-08-06T20:47:47;14.90;99.90
10512;DHT22;5304;48.604;2.096;2023-08-06T20:50:31;14.90;99.90
